Shraders, Pennsylvania
Current Conditions -  °F | °C
As of 10:15 PM on Saturday 25 Oct 2014 (Local Time) from KUNV Reporting Station
Scattered Clouds Scattered Clouds  
Wind Chill: 61°   Ceiling: Unl
Heat Index: 61°   Visibility: 10mi
Dew Point: 43°   Wind: 16mph
Humidity: 51%   Direction: 300°WNW
Pressure: 29.68"   Gusts: 23mph
Location:  40.6771°N, 77.6392°W
Report Text: KUNV 260215Z AUTO 30014G20KT 10SM SCT060 SCT085 16/06 A2968 RMK AO2 LTG DSNT N T01620061
Loading
Personal Weather Stations






























Interactive Weather Map
Tropical Storm Tracking
New forecast layout! Learn more

10-Day Weather Forecast

Advertisements
Track Severe Weather on mobile